Time;durP1;ratioP1;P1;durP2;ratioP2;P2;SDS_P1;SDS_P2;PMS_P1;PMS_P2;Temp;Humidity;BMP_temperature;BMP_pressure;BME280_temperature;BME280_humidity;BME280_pressure;Samples;Min_cycle;Max_cycle;Signal;HPM_P1;HPM_P2
2021/03/18 00:00:39;;;;;;;5.05;4.65;;;;;;;;;;5085771;28;20267;-80
2021/03/18 00:03:06;;;;;;;5.20;4.70;;;4.50;99.90;;;;;;5081398;28;20225;-80
2021/03/18 00:05:33;;;;;;;6.43;5.72;;;4.40;99.90;;;;;;5083341;28;20280;-79
2021/03/18 00:08:01;;;;;;;5.60;4.82;;;4.40;99.90;;;;;;5084504;28;20211;-80
2021/03/18 00:10:28;;;;;;;11.55;4.88;;;4.40;99.90;;;;;;5080246;28;20203;-79
2021/03/18 00:12:55;;;;;;;7.05;6.35;;;4.40;99.90;;;;;;5085266;28;20259;-81
2021/03/18 00:15:22;;;;;;;6.40;5.90;;;4.40;99.90;;;;;;5082054;28;21047;-80
2021/03/18 00:17:49;;;;;;;11.32;6.40;;;4.40;99.90;;;;;;5086227;28;20316;-80
2021/03/18 00:20:16;;;;;;;6.65;5.50;;;4.40;99.90;;;;;;5088049;28;20285;-80
2021/03/18 00:22:44;;;;;;;6.28;5.68;;;4.40;99.90;;;;;;5081447;28;20280;-80
2021/03/18 00:25:14;;;;;;;5.70;5.10;;;4.40;99.90;;;;;;5082431;28;20252;-80
2021/03/18 00:27:41;;;;;;;6.38;5.03;;;4.30;99.90;;;;;;5076025;28;20210;-78
2021/03/18 00:30:09;;;;;;;5.78;5.10;;;4.30;99.90;;;;;;5085346;28;20263;-80
2021/03/18 00:32:37;;;;;;;11.43;6.15;;;4.30;99.90;;;;;;5087981;28;20233;-80
2021/03/18 00:35:04;;;;;;;6.65;4.97;;;4.30;99.90;;;;;;5087862;28;20194;-80
2021/03/18 00:37:31;;;;;;;6.40;5.43;;;4.30;99.90;;;;;;5083561;28;20225;-79
2021/03/18 00:39:58;;;;;;;12.98;4.85;;;4.20;99.90;;;;;;5077002;28;20298;-79
2021/03/18 00:42:25;;;;;;;5.78;5.10;;;4.20;99.90;;;;;;5081311;28;20203;-80
2021/03/18 00:44:52;;;;;;;8.02;6.10;;;4.20;99.90;;;;;;5081838;28;20198;-79
2021/03/18 00:47:20;;;;;;;11.00;5.20;;;4.20;99.90;;;;;;5083397;28;20728;-78
2021/03/18 00:49:46;;;;;;;7.00;5.90;;;4.20;99.90;;;;;;5079534;28;20767;-79
2021/03/18 00:52:13;;;;;;;10.15;5.32;;;4.20;99.90;;;;;;5078044;28;20691;-79
2021/03/18 00:54:40;;;;;;;9.60;5.30;;;4.20;99.90;;;;;;5081340;28;20202;-80
2021/03/18 00:57:06;;;;;;;6.13;5.55;;;4.20;99.90;;;;;;5081388;28;20223;-79
2021/03/18 00:59:34;;;;;;;10.88;5.75;;;4.30;99.90;;;;;;5078840;28;20247;-79
2021/03/18 01:02:00;;;;;;;6.90;6.28;;;4.30;99.90;;;;;;5081414;28;20322;-78
2021/03/18 01:04:27;;;;;;;9.65;5.70;;;4.30;99.90;;;;;;5080983;28;20196;-78
2021/03/18 01:06:53;;;;;;;7.40;5.00;;;4.30;99.90;;;;;;5077604;28;20194;-81
2021/03/18 01:09:20;;;;;;;7.15;4.85;;;4.30;99.90;;;;;;5078370;28;20289;-79
2021/03/18 01:11:46;;;;;;;5.82;5.20;;;4.20;99.90;;;;;;5081980;28;20651;-79
2021/03/18 01:14:14;;;;;;;6.05;5.10;;;4.20;99.90;;;;;;5079971;28;20657;-80
2021/03/18 01:16:45;;;;;;;6.15;5.63;;;4.20;99.90;;;;;;5086510;28;20251;-79
2021/03/18 01:19:12;;;;;;;7.80;5.20;;;4.10;99.90;;;;;;5078307;28;20288;-79
2021/03/18 01:21:41;;;;;;;5.22;4.78;;;4.10;99.90;;;;;;5082122;28;20196;-80
2021/03/18 01:24:09;;;;;;;9.80;5.65;;;4.10;99.90;;;;;;5074050;28;20205;-79
2021/03/18 01:26:35;;;;;;;6.38;5.80;;;4.10;99.90;;;;;;5081477;28;20260;-79
2021/03/18 01:29:03;;;;;;;6.68;6.05;;;4.00;99.90;;;;;;5081562;28;20239;-79
2021/03/18 01:31:30;;;;;;;6.68;5.85;;;4.00;99.90;;;;;;5083126;28;20298;-79
2021/03/18 01:33:57;;;;;;;12.25;6.90;;;4.00;99.90;;;;;;5078715;28;20310;-79
2021/03/18 01:36:24;;;;;;;6.88;6.05;;;4.00;99.90;;;;;;5081004;28;20257;-79
2021/03/18 01:38:51;;;;;;;6.43;5.80;;;4.00;99.90;;;;;;5078902;28;20212;-79
2021/03/18 01:41:19;;;;;;;13.00;6.55;;;4.00;99.90;;;;;;5076456;28;20200;-80
2021/03/18 01:43:46;;;;;;;6.55;5.90;;;4.00;99.90;;;;;;5082859;28;20660;-79
2021/03/18 01:46:13;;;;;;;7.07;6.13;;;4.00;99.90;;;;;;5080901;28;20279;-79
2021/03/18 01:48:41;;;;;;;7.00;6.25;;;4.00;99.90;;;;;;5079283;28;20669;-80
2021/03/18 01:51:09;;;;;;;9.20;6.00;;;4.00;99.90;;;;;;5079870;28;20198;-80
2021/03/18 01:53:36;;;;;;;6.50;5.60;;;4.00;99.90;;;;;;5079280;28;20548;-79
2021/03/18 01:56:04;;;;;;;7.00;6.30;;;3.90;99.90;;;;;;5082173;28;20217;-79
2021/03/18 01:58:31;;;;;;;10.40;6.28;;;4.00;99.90;;;;;;5075075;28;20221;-79
2021/03/18 02:00:59;;;;;;;7.03;5.55;;;3.90;99.90;;;;;;5080145;28;20722;-80
2021/03/18 02:03:27;;;;;;;7.25;5.97;;;3.90;99.90;;;;;;5077082;28;20197;-80
2021/03/18 02:05:54;;;;;;;6.22;5.55;;;3.90;99.90;;;;;;5078520;28;20885;-80
2021/03/18 02:08:22;;;;;;;5.32;4.80;;;3.80;99.90;;;;;;5077079;28;20205;-80
2021/03/18 02:10:50;;;;;;;6.80;5.55;;;3.80;99.90;;;;;;5081075;28;20284;-80
2021/03/18 02:13:17;;;;;;;9.18;5.38;;;3.80;99.90;;;;;;5076761;28;20239;-80
2021/03/18 02:15:48;;;;;;;6.20;5.22;;;3.70;99.90;;;;;;5078711;28;20229;-81
2021/03/18 02:18:22;;;;;;;5.72;5.13;;;3.80;99.90;;;;;;5079957;28;20324;-81
2021/03/18 02:21:28;;;;;;;7.50;5.10;;;3.80;99.90;;;;;;5082213;28;20198;-81
2021/03/18 02:24:22;;;;;;;5.88;5.18;;;3.70;99.90;;;;;;5079102;28;20279;-80
2021/03/18 02:27:26;;;;;;;6.55;5.95;;;3.70;99.90;;;;;;5080928;28;20204;-78
2021/03/18 02:30:24;;;;;;;5.85;5.38;;;3.70;99.90;;;;;;5078535;28;20293;-79
2021/03/18 02:33:09;;;;;;;5.30;4.80;;;3.60;99.90;;;;;;5080569;28;20567;-79
2021/03/18 02:35:42;;;;;;;14.60;6.45;;;3.60;99.90;;;;;;5078615;28;20237;-79
2021/03/18 02:38:12;;;;;;;6.47;5.65;;;3.50;99.90;;;;;;5075662;28;20232;-80
2021/03/18 02:40:42;;;;;;;6.55;5.93;;;3.60;99.90;;;;;;5076401;28;20371;-79
2021/03/18 02:43:11;;;;;;;6.22;5.68;;;3.60;99.90;;;;;;5080412;28;20225;-78
2021/03/18 02:45:41;;;;;;;7.47;6.10;;;3.60;99.90;;;;;;5083036;28;20732;-80
2021/03/18 02:48:11;;;;;;;6.97;5.28;;;3.60;99.90;;;;;;5073968;28;20676;-79
2021/03/18 02:50:39;;;;;;;9.98;5.43;;;3.60;99.90;;;;;;5079927;28;20202;-80
2021/03/18 02:53:06;;;;;;;12.65;5.72;;;3.60;99.90;;;;;;5075477;28;20710;-80
2021/03/18 02:55:35;;;;;;;6.20;5.20;;;3.60;99.90;;;;;;5077075;28;20230;-80
2021/03/18 02:58:06;;;;;;;10.25;6.20;;;3.60;99.90;;;;;;5080183;28;20254;-79
2021/03/18 03:00:33;;;;;;;7.20;5.95;;;3.60;99.90;;;;;;5081483;28;20327;-79
2021/03/18 03:03:00;;;;;;;9.95;6.55;;;3.70;99.90;;;;;;5075836;28;20297;-79
2021/03/18 03:05:27;;;;;;;7.15;6.43;;;3.70;99.90;;;;;;5075172;28;20225;-80
2021/03/18 03:07:55;;;;;;;9.55;5.97;;;3.70;99.90;;;;;;5080361;28;20200;-80
2021/03/18 03:10:23;;;;;;;7.65;5.90;;;3.70;99.90;;;;;;5077717;28;20632;-78
2021/03/18 03:12:51;;;;;;;7.45;5.93;;;3.80;99.90;;;;;;5077529;28;20313;-81
2021/03/18 03:15:19;;;;;;;9.70;7.63;;;3.80;99.90;;;;;;5075823;28;20204;-78
2021/03/18 03:17:47;;;;;;;6.00;5.40;;;3.80;99.90;;;;;;5074283;28;20315;-78
2021/03/18 03:20:15;;;;;;;6.80;5.20;;;3.80;99.90;;;;;;5071112;28;20276;-79
2021/03/18 03:22:43;;;;;;;6.72;5.75;;;3.70;99.90;;;;;;5079481;28;20728;-77
2021/03/18 03:25:14;;;;;;;6.60;5.22;;;3.70;99.90;;;;;;5076482;28;20239;-79
2021/03/18 03:27:44;;;;;;;5.65;5.15;;;3.70;99.90;;;;;;5071257;28;20276;-79
2021/03/18 03:30:12;;;;;;;7.05;6.35;;;3.70;99.90;;;;;;5075959;28;20196;-79
2021/03/18 03:32:39;;;;;;;8.57;6.32;;;3.70;99.90;;;;;;5074641;28;20251;-78
2021/03/18 03:35:07;;;;;;;7.80;5.90;;;3.70;99.90;;;;;;5075622;28;20240;-79
2021/03/18 03:37:34;;;;;;;7.22;5.70;;;3.70;99.90;;;;;;5078307;28;20221;-79
2021/03/18 03:40:01;;;;;;;7.97;6.75;;;3.70;99.90;;;;;;5075580;28;20230;-79
2021/03/18 03:42:29;;;;;;;9.55;6.80;;;3.70;99.90;;;;;;5077951;28;20211;-79
2021/03/18 03:44:55;;;;;;;7.22;6.63;;;3.80;99.90;;;;;;5077945;28;20229;-80
2021/03/18 03:47:22;;;;;;;8.50;6.47;;;3.80;99.90;;;;;;5074313;28;20199;-80
2021/03/18 03:49:49;;;;;;;10.68;6.78;;;3.80;99.90;;;;;;5077067;28;20196;-78
2021/03/18 03:52:22;;;;;;;9.82;6.90;;;3.80;99.90;;;;;;5076593;28;20285;-80
2021/03/18 03:54:54;;;;;;;10.35;6.68;;;3.90;99.90;;;;;;5077972;28;20285;-78
2021/03/18 03:57:26;;;;;;;7.88;6.50;;;3.90;99.90;;;;;;5079519;28;20229;-80
2021/03/18 03:59:57;;;;;;;8.10;7.05;;;3.90;99.90;;;;;;5077161;28;20287;-79
2021/03/18 04:02:26;;;;;;;6.93;6.22;;;3.90;99.90;;;;;;5077401;28;20280;-79
2021/03/18 04:04:54;;;;;;;10.73;7.50;;;3.90;99.90;;;;;;5075198;28;20285;-78
2021/03/18 04:07:28;;;;;;;9.30;7.47;;;3.80;99.90;;;;;;5077638;28;20199;-78
2021/03/18 04:09:58;;;;;;;11.00;7.15;;;3.90;99.90;;;;;;5078901;28;20199;-80
2021/03/18 04:12:30;;;;;;;9.60;7.88;;;3.90;99.90;;;;;;5075215;28;20192;-79
2021/03/18 04:14:59;;;;;;;9.55;8.65;;;3.90;99.90;;;;;;5081768;28;20724;-78
2021/03/18 04:17:27;;;;;;;14.45;7.70;;;3.90;99.90;;;;;;5083406;28;20255;-80
2021/03/18 04:19:57;;;;;;;9.60;7.65;;;3.90;99.90;;;;;;5076573;28;20292;-79
2021/03/18 04:22:27;;;;;;;11.63;7.68;;;3.90;99.90;;;;;;5076305;28;20642;-80
2021/03/18 04:24:54;;;;;;;8.88;7.22;;;3.90;99.90;;;;;;5081140;28;20319;-78
2021/03/18 04:27:21;;;;;;;9.10;7.43;;;3.90;99.90;;;;;;5082697;28;20614;-78
2021/03/18 04:29:49;;;;;;;8.63;7.82;;;3.90;99.90;;;;;;5082130;28;20213;-79
2021/03/18 04:32:17;;;;;;;9.50;7.75;;;3.90;99.90;;;;;;5079701;28;20989;-79
2021/03/18 04:34:44;;;;;;;9.75;8.70;;;4.00;99.90;;;;;;5081495;28;20297;-79
2021/03/18 04:37:12;;;;;;;8.50;7.60;;;4.00;99.90;;;;;;5076608;28;20324;-78
2021/03/18 04:39:41;;;;;;;11.10;8.90;;;4.00;99.90;;;;;;5078495;28;20206;-78
2021/03/18 04:42:08;;;;;;;9.55;8.30;;;4.00;99.90;;;;;;5084875;28;20276;-78
2021/03/18 04:44:36;;;;;;;8.40;7.60;;;4.00;99.90;;;;;;5075863;28;20577;-78
2021/03/18 04:47:04;;;;;;;12.18;8.93;;;4.00;99.90;;;;;;5078602;28;20234;-79
2021/03/18 04:49:32;;;;;;;13.57;9.48;;;4.00;99.90;;;;;;5079427;28;20222;-79
2021/03/18 04:51:59;;;;;;;10.07;8.50;;;4.00;99.90;;;;;;5082908;28;20577;-79
2021/03/18 04:54:26;;;;;;;13.60;7.93;;;4.00;99.90;;;;;;5084006;28;20217;-79
2021/03/18 04:56:53;;;;;;;9.25;7.38;;;4.00;99.90;;;;;;5078461;28;20778;-79
2021/03/18 04:59:20;;;;;;;11.23;7.90;;;4.00;99.90;;;;;;5081871;28;20206;-79
2021/03/18 05:01:49;;;;;;;10.57;7.88;;;4.00;99.90;;;;;;5079803;28;20226;-80
2021/03/18 05:04:16;;;;;;;12.30;8.98;;;4.00;99.90;;;;;;5080104;28;20361;-79
2021/03/18 05:06:47;;;;;;;9.80;8.50;;;4.10;99.90;;;;;;5080574;28;20200;-79
2021/03/18 05:09:15;;;;;;;14.32;8.52;;;4.10;99.90;;;;;;5082676;28;20285;-79
2021/03/18 05:11:42;;;;;;;9.52;8.32;;;4.10;99.90;;;;;;5077796;28;20202;-78
2021/03/18 05:14:08;;;;;;;10.75;8.77;;;4.10;99.90;;;;;;5079328;28;20374;-80
2021/03/18 05:16:36;;;;;;;10.57;7.97;;;4.10;99.90;;;;;;5082504;28;20693;-78
2021/03/18 05:19:03;;;;;;;9.70;8.35;;;4.20;99.90;;;;;;5084433;28;20370;-78
2021/03/18 05:21:30;;;;;;;8.02;7.22;;;4.20;99.90;;;;;;5077596;28;20206;-79
2021/03/18 05:24:00;;;;;;;11.55;8.18;;;4.20;99.90;;;;;;5078718;28;20201;-80
2021/03/18 05:26:27;;;;;;;11.68;7.70;;;4.20;99.90;;;;;;5078490;28;20221;-78
2021/03/18 05:28:53;;;;;;;11.52;7.70;;;4.20;99.90;;;;;;5080337;28;20217;-80
2021/03/18 05:31:21;;;;;;;15.95;7.95;;;4.20;99.90;;;;;;5074190;28;20737;-79
2021/03/18 05:33:47;;;;;;;12.45;8.57;;;4.20;99.90;;;;;;5080015;28;20208;-79
2021/03/18 05:36:13;;;;;;;10.18;7.50;;;4.20;99.90;;;;;;5078511;28;20198;-78
2021/03/18 05:38:40;;;;;;;8.63;7.22;;;4.20;99.90;;;;;;5074226;28;20236;-79
2021/03/18 05:41:07;;;;;;;8.35;7.47;;;4.20;99.90;;;;;;5079566;28;20196;-78
2021/03/18 05:43:34;;;;;;;8.75;7.75;;;4.20;99.90;;;;;;5081977;28;20222;-79
2021/03/18 05:46:01;;;;;;;15.57;8.38;;;4.20;99.90;;;;;;5081756;28;20234;-80
2021/03/18 05:48:29;;;;;;;9.85;8.43;;;4.20;99.90;;;;;;5079004;28;20222;-79
2021/03/18 05:50:57;;;;;;;12.25;8.20;;;4.20;99.90;;;;;;5077867;28;20749;-78
2021/03/18 05:53:24;;;;;;;10.35;7.72;;;4.20;99.90;;;;;;5078468;28;20305;-79
2021/03/18 05:55:52;;;;;;;13.48;7.63;;;4.10;99.90;;;;;;5080332;28;20547;-81
2021/03/18 05:58:22;;;;;;;9.05;7.72;;;4.10;99.90;;;;;;5082852;28;20313;-78
2021/03/18 06:00:51;;;;;;;13.70;8.20;;;4.10;99.90;;;;;;5085552;28;20224;-80
2021/03/18 06:03:18;;;;;;;10.20;7.10;;;4.10;99.90;;;;;;5077088;28;20207;-80
2021/03/18 06:05:47;;;;;;;9.13;7.60;;;4.10;99.90;;;;;;5077126;28;20200;-79
2021/03/18 06:08:14;;;;;;;8.00;7.00;;;4.10;99.90;;;;;;5074353;28;20268;-78
2021/03/18 06:10:40;;;;;;;9.77;7.75;;;4.10;99.90;;;;;;5071761;28;20310;-78
2021/03/18 06:13:07;;;;;;;9.48;8.15;;;4.10;99.90;;;;;;5076354;28;20589;-79
2021/03/18 06:15:34;;;;;;;11.52;8.20;;;4.10;99.90;;;;;;5074311;28;20202;-79
2021/03/18 06:18:01;;;;;;;15.45;8.95;;;4.20;99.90;;;;;;5077205;28;20592;-80
2021/03/18 06:20:30;;;;;;;14.32;8.18;;;4.10;99.90;;;;;;5076844;28;20252;-79
2021/03/18 06:22:59;;;;;;;12.38;9.00;;;4.20;99.90;;;;;;5077763;28;20317;-80
2021/03/18 06:25:28;;;;;;;11.40;7.25;;;4.20;99.90;;;;;;5078718;28;20263;-80
2021/03/18 06:28:12;;;;;;;10.10;8.68;;;4.20;99.90;;;;;;5081761;28;20201;-78
2021/03/18 06:30:40;;;;;;;15.65;9.60;;;4.20;99.90;;;;;;5078682;28;20230;-78
2021/03/18 06:33:21;;;;;;;12.15;8.38;;;4.20;99.90;;;;;;5077217;28;20460;-78
2021/03/18 06:35:47;;;;;;;11.13;7.75;;;4.20;99.90;;;;;;5077207;28;20199;-78
2021/03/18 06:38:14;;;;;;;10.30;7.30;;;4.20;99.90;;;;;;5080880;28;20240;-78
2021/03/18 06:40:42;;;;;;;10.60;8.02;;;4.20;99.90;;;;;;5080141;28;20219;-79
2021/03/18 06:43:10;;;;;;;10.80;8.48;;;4.20;99.90;;;;;;5086309;28;20210;-78
2021/03/18 06:45:39;;;;;;;13.00;9.10;;;4.20;99.90;;;;;;5079629;28;20594;-80
2021/03/18 06:48:08;;;;;;;12.50;9.40;;;4.20;99.90;;;;;;5078258;28;20202;-78
2021/03/18 06:50:37;;;;;;;10.75;9.65;;;4.30;99.90;;;;;;5077804;28;20214;-78
2021/03/18 06:53:17;;;;;;;12.40;10.23;;;4.30;99.90;;;;;;5077555;28;20225;-79
2021/03/18 06:55:43;;;;;;;13.43;11.43;;;4.30;99.90;;;;;;5075440;28;20200;-79
2021/03/18 06:58:18;;;;;;;14.18;11.70;;;4.30;99.90;;;;;;5076342;28;20321;-78
2021/03/18 07:00:48;;;;;;;18.48;12.52;;;4.40;99.90;;;;;;5072303;28;20278;-78
2021/03/18 07:03:25;;;;;;;17.02;12.52;;;4.40;99.90;;;;;;5081917;28;21047;-79
2021/03/18 07:05:52;;;;;;;17.58;13.90;;;4.40;99.90;;;;;;5078331;28;20202;-79
2021/03/18 07:08:23;;;;;;;14.70;12.98;;;4.50;99.90;;;;;;5073083;28;20210;-78
2021/03/18 07:10:50;;;;;;;16.30;12.48;;;4.50;99.90;;;;;;5075667;28;20236;-79
2021/03/18 07:13:22;;;;;;;14.98;12.50;;;4.50;99.90;;;;;;5078147;28;20193;-78
2021/03/18 07:15:51;;;;;;;13.23;11.85;;;4.60;99.90;;;;;;5080039;28;20240;-80
2021/03/18 07:18:19;;;;;;;13.93;12.00;;;4.60;99.90;;;;;;5076973;28;20305;-79
2021/03/18 07:21:00;;;;;;;16.08;12.63;;;4.70;99.90;;;;;;5076138;28;20249;-79
2021/03/18 07:23:35;;;;;;;22.35;11.30;;;4.70;99.90;;;;;;5075373;28;20195;-78
2021/03/18 07:26:10;;;;;;;13.15;10.77;;;4.80;99.90;;;;;;5076566;28;20573;-80
2021/03/18 07:28:36;;;;;;;19.13;13.90;;;4.90;99.90;;;;;;5070746;28;20206;-79
2021/03/18 07:31:04;;;;;;;22.25;13.30;;;4.90;99.90;;;;;;5080708;28;20198;-78
2021/03/18 07:33:32;;;;;;;28.88;16.70;;;5.00;99.90;;;;;;5072917;28;20228;-80
2021/03/18 07:35:59;;;;;;;35.45;18.73;;;5.10;99.90;;;;;;5083598;28;20199;-79
2021/03/18 07:38:26;;;;;;;30.30;16.25;;;5.10;99.90;;;;;;5076531;28;20231;-79
2021/03/18 07:40:52;;;;;;;30.05;17.02;;;5.20;99.90;;;;;;5079236;28;20244;-78
2021/03/18 07:43:19;;;;;;;23.77;16.77;;;5.20;99.90;;;;;;5077044;28;20234;-79
2021/03/18 07:45:45;;;;;;;41.70;21.58;;;5.30;99.90;;;;;;5072256;28;20237;-79
2021/03/18 07:48:14;;;;;;;37.35;20.98;;;5.30;99.90;;;;;;5077137;28;20254;-79
2021/03/18 07:50:41;;;;;;;35.13;19.38;;;5.40;99.90;;;;;;5082158;28;20207;-79
2021/03/18 07:53:11;;;;;;;45.28;21.80;;;5.40;99.90;;;;;;5074061;28;20207;-79
2021/03/18 07:55:39;;;;;;;38.17;21.55;;;5.50;99.90;;;;;;5082035;28;20199;-79
2021/03/18 07:58:05;;;;;;;28.50;18.70;;;5.50;99.90;;;;;;5084140;28;20242;-80
2021/03/18 08:00:33;;;;;;;39.85;21.35;;;5.50;99.90;;;;;;5081439;28;20222;-78
2021/03/18 08:03:28;;;;;;;24.75;17.67;;;5.60;99.90;;;;;;5080102;28;20682;-79
2021/03/18 08:05:56;;;;;;;28.60;18.50;;;5.60;99.90;;;;;;5061672;28;20219;-78
2021/03/18 08:08:41;;;;;;;30.98;18.77;;;5.60;99.90;;;;;;5081791;28;20923;-79
2021/03/18 08:11:10;;;;;;;44.42;21.65;;;5.70;99.90;;;;;;5078866;28;20277;-79
2021/03/18 08:13:38;;;;;;;38.45;25.40;;;5.70;99.90;;;;;;5080856;28;20204;-79
2021/03/18 08:16:07;;;;;;;39.88;23.80;;;5.80;99.90;;;;;;5078965;28;20279;-80
2021/03/18 08:18:40;;;;;;;43.63;23.27;;;5.90;99.90;;;;;;5083147;28;20326;-80
2021/03/18 08:21:14;;;;;;;35.70;22.63;;;5.90;99.90;;;;;;5079873;28;20207;-79
2021/03/18 08:23:51;;;;;;;37.55;20.30;;;6.00;99.90;;;;;;5073716;28;20195;-79
2021/03/18 08:26:48;;;;;;;26.25;16.38;;;6.00;99.90;;;;;;5076946;28;20219;-81
2021/03/18 08:29:21;;;;;;;27.88;16.33;;;6.10;99.90;;;;;;5074801;28;20200;-80
2021/03/18 08:32:06;;;;;;;20.73;15.10;;;6.20;99.90;;;;;;5079290;28;20548;-81
2021/03/18 08:34:52;;;;;;;21.30;16.85;;;6.20;99.90;;;;;;5070399;28;20334;-81
2021/03/18 08:37:39;;;;;;;19.27;12.90;;;6.20;99.90;;;;;;5076079;28;20810;-79
2021/03/18 08:40:09;;;;;;;23.08;12.90;;;6.20;99.90;;;;;;5080410;28;20261;-79
2021/03/18 08:42:40;;;;;;;22.45;14.57;;;6.20;99.90;;;;;;5079281;28;20196;-80
2021/03/18 08:45:11;;;;;;;22.63;13.85;;;6.30;99.90;;;;;;5082171;28;20195;-80
2021/03/18 08:47:39;;;;;;;22.50;13.07;;;6.30;99.90;;;;;;5080573;28;20195;-79
2021/03/18 08:50:10;;;;;;;20.38;13.48;;;6.50;99.90;;;;;;5080406;28;20287;-80
2021/03/18 08:52:38;;;;;;;16.50;13.38;;;6.50;99.90;;;;;;5078050;28;20716;-80
2021/03/18 08:55:06;;;;;;;20.50;12.50;;;6.60;99.90;;;;;;5078071;28;20192;-80
2021/03/18 08:57:34;;;;;;;18.92;15.05;;;6.70;99.90;;;;;;5081176;28;20230;-79
2021/03/18 09:00:10;;;;;;;19.27;13.77;;;6.70;99.90;;;;;;5072313;28;20212;-80
2021/03/18 09:02:38;;;;;;;18.15;15.02;;;6.70;99.90;;;;;;5075515;28;20233;-80
2021/03/18 09:05:11;;;;;;;18.98;16.23;;;6.80;99.90;;;;;;5078153;28;20645;-81
2021/03/18 09:07:38;;;;;;;27.58;16.35;;;6.80;99.90;;;;;;5078502;28;20208;-80
2021/03/18 09:10:08;;;;;;;17.63;15.32;;;6.90;99.90;;;;;;5079778;28;20210;-80
2021/03/18 09:12:40;;;;;;;20.88;12.30;;;6.80;99.90;;;;;;5086819;28;20196;-81
2021/03/18 09:15:22;;;;;;;14.93;12.18;;;6.90;99.90;;;;;;5082425;28;20265;-79
2021/03/18 09:17:51;;;;;;;16.52;12.73;;;6.90;99.90;;;;;;5080327;28;20564;-79
2021/03/18 09:20:22;;;;;;;20.15;14.80;;;7.00;99.90;;;;;;5077594;28;20286;-78
2021/03/18 09:22:48;;;;;;;23.27;17.17;;;7.00;99.90;;;;;;5079295;28;20249;-80
2021/03/18 09:25:16;;;;;;;22.45;15.63;;;7.10;99.90;;;;;;5078982;28;20320;-81
2021/03/18 09:27:44;;;;;;;21.33;17.45;;;7.20;99.90;;;;;;5073367;28;20250;-81
2021/03/18 09:30:16;;;;;;;21.98;17.70;;;7.20;99.90;;;;;;5079657;28;20537;-79
2021/03/18 09:32:43;;;;;;;25.33;18.95;;;7.30;99.90;;;;;;5074887;28;20206;-80
2021/03/18 09:35:12;;;;;;;35.97;20.48;;;7.30;99.90;;;;;;5080962;28;20295;-79
2021/03/18 09:37:39;;;;;;;31.02;22.13;;;7.40;99.90;;;;;;5075390;28;20581;-81
2021/03/18 09:40:09;;;;;;;33.72;23.75;;;7.40;99.90;;;;;;5074855;28;20216;-79
2021/03/18 09:42:36;;;;;;;31.52;22.98;;;7.50;99.90;;;;;;5081415;28;20265;-79
2021/03/18 09:45:04;;;;;;;31.85;22.75;;;7.50;99.90;;;;;;5083035;28;20280;-80
2021/03/18 09:47:31;;;;;;;35.35;22.38;;;7.60;99.90;;;;;;5084958;28;20202;-79
2021/03/18 09:49:57;;;;;;;28.85;21.73;;;7.60;99.90;;;;;;5075264;28;20200;-81
2021/03/18 09:52:27;;;;;;;35.80;24.38;;;7.60;99.90;;;;;;5073570;28;20224;-80
2021/03/18 09:54:55;;;;;;;31.15;22.55;;;7.60;99.90;;;;;;5077693;28;20208;-78
2021/03/18 09:57:23;;;;;;;24.58;18.90;;;7.70;99.90;;;;;;5085886;28;20228;-80
2021/03/18 09:59:51;;;;;;;27.42;18.33;;;7.70;99.90;;;;;;5080736;28;20200;-80
2021/03/18 10:02:24;;;;;;;17.40;14.40;;;7.70;99.90;;;;;;5078481;28;20192;-80
2021/03/18 10:04:51;;;;;;;18.90;13.70;;;7.80;99.90;;;;;;5070098;28;20714;-79
2021/03/18 10:07:18;;;;;;;21.92;16.13;;;7.80;99.90;;;;;;5081010;28;20208;-79
2021/03/18 10:09:46;;;;;;;14.02;10.27;;;7.80;99.90;;;;;;5081452;28;20611;-79
2021/03/18 10:12:15;;;;;;;10.60;8.65;;;7.80;99.90;;;;;;5084330;28;20206;-80
2021/03/18 10:14:44;;;;;;;9.15;8.10;;;7.80;99.90;;;;;;5076189;28;20234;-79
2021/03/18 10:17:13;;;;;;;10.90;7.15;;;7.80;99.90;;;;;;5067701;28;20217;-80
2021/03/18 10:19:43;;;;;;;8.07;7.35;;;7.80;99.90;;;;;;5075556;28;20269;-79
2021/03/18 10:22:11;;;;;;;11.27;8.05;;;7.80;99.90;;;;;;5072590;28;20283;-80
2021/03/18 10:24:39;;;;;;;8.07;6.82;;;7.80;99.90;;;;;;5078632;28;20433;-79
2021/03/18 10:27:11;;;;;;;11.43;7.40;;;7.80;99.90;;;;;;5077479;28;20310;-79
2021/03/18 10:29:39;;;;;;;14.85;8.93;;;7.90;99.90;;;;;;5069340;28;20583;-81
2021/03/18 10:32:14;;;;;;;8.98;7.05;;;7.90;99.90;;;;;;5071571;28;20683;-78
2021/03/18 10:34:41;;;;;;;13.77;7.95;;;7.90;99.90;;;;;;5077122;28;20199;-80
2021/03/18 10:37:31;;;;;;;9.07;7.88;;;8.00;99.90;;;;;;5076042;28;20230;-79
2021/03/18 10:40:14;;;;;;;10.77;8.80;;;8.00;99.90;;;;;;5072026;28;20200;-80
2021/03/18 10:42:42;;;;;;;9.50;7.50;;;8.10;99.90;;;;;;5075420;28;20225;-81
2021/03/18 10:45:22;;;;;;;9.95;7.80;;;8.10;99.90;;;;;;5069803;28;20504;-79
2021/03/18 10:47:48;;;;;;;12.30;8.88;;;8.10;99.90;;;;;;5074491;28;20230;-81
2021/03/18 10:50:17;;;;;;;12.30;9.93;;;8.20;99.90;;;;;;5069995;28;20193;-81
2021/03/18 10:52:52;;;;;;;14.27;9.15;;;8.30;99.90;;;;;;5069601;28;20283;-80
2021/03/18 10:55:23;;;;;;;15.30;9.25;;;8.30;99.90;;;;;;5072677;28;20308;-81
2021/03/18 10:58:01;;;;;;;7.97;6.72;;;8.40;99.90;;;;;;5072517;28;20217;-79
2021/03/18 11:00:30;;;;;;;9.05;7.40;;;8.40;99.90;;;;;;5072777;28;20270;-79
2021/03/18 11:03:07;;;;;;;8.48;7.43;;;8.40;99.90;;;;;;5074795;28;20462;-78
2021/03/18 11:05:36;;;;;;;15.80;7.43;;;8.50;99.90;;;;;;5075832;28;20240;-80
2021/03/18 11:08:03;;;;;;;12.77;7.85;;;8.60;99.90;;;;;;5072771;28;20292;-79
2021/03/18 11:10:39;;;;;;;9.73;7.57;;;8.70;99.90;;;;;;5073123;28;20213;-80
2021/03/18 11:13:08;;;;;;;10.15;8.50;;;8.80;99.90;;;;;;5068321;28;20249;-79
2021/03/18 11:15:45;;;;;;;10.32;7.93;;;8.80;99.90;;;;;;5068893;28;20304;-79
2021/03/18 11:18:12;;;;;;;9.50;7.68;;;8.90;99.90;;;;;;5066851;28;20227;-80
2021/03/18 11:20:40;;;;;;;14.13;7.78;;;9.00;99.90;;;;;;5074996;28;20199;-79
2021/03/18 11:23:08;;;;;;;12.20;7.75;;;9.00;99.90;;;;;;5068919;28;20552;-78
2021/03/18 11:25:34;;;;;;;13.13;8.40;;;9.10;99.90;;;;;;5070199;28;20301;-80
2021/03/18 11:28:01;;;;;;;9.35;7.68;;;9.20;99.90;;;;;;5072430;28;20239;-79
2021/03/18 11:30:30;;;;;;;8.50;7.10;;;9.20;99.90;;;;;;5074767;28;20295;-78
2021/03/18 11:33:12;;;;;;;6.68;5.93;;;9.30;99.90;;;;;;5071561;28;20198;-79
2021/03/18 11:35:39;;;;;;;6.78;6.03;;;9.30;99.90;;;;;;5075379;28;20206;-79
2021/03/18 11:38:06;;;;;;;6.63;5.65;;;9.40;99.90;;;;;;5075595;28;20315;-80
2021/03/18 11:40:33;;;;;;;7.15;5.60;;;9.30;99.90;;;;;;5073658;28;20630;-79
2021/03/18 11:42:59;;;;;;;5.20;4.70;;;9.40;99.90;;;;;;5074380;28;20196;-80
2021/03/18 11:45:26;;;;;;;6.25;4.85;;;9.40;99.90;;;;;;5076528;28;20241;-79
2021/03/18 11:47:52;;;;;;;8.63;5.18;;;9.50;99.90;;;;;;5074008;28;20344;-79
2021/03/18 11:50:20;;;;;;;6.45;4.05;;;9.60;99.90;;;;;;5073071;28;20203;-81
2021/03/18 11:52:46;;;;;;;9.18;5.40;;;9.60;99.90;;;;;;5074224;28;20197;-79
2021/03/18 11:55:13;;;;;;;6.40;4.30;;;9.60;99.90;;;;;;5072079;28;20205;-79
2021/03/18 11:57:39;;;;;;;7.82;4.53;;;9.60;99.90;;;;;;5072752;28;20332;-80
2021/03/18 12:00:08;;;;;;;4.82;4.15;;;9.60;99.90;;;;;;5074060;28;20235;-79
2021/03/18 12:02:35;;;;;;;5.53;4.45;;;9.60;99.90;;;;;;5070485;28;20369;-81
2021/03/18 12:05:01;;;;;;;5.00;3.85;;;9.60;99.90;;;;;;5077636;28;20198;-79
2021/03/18 12:07:28;;;;;;;7.68;4.30;;;9.60;99.90;;;;;;5071748;28;20197;-78
2021/03/18 12:09:55;;;;;;;4.38;3.92;;;9.60;99.90;;;;;;5073392;28;20779;-80
2021/03/18 12:12:21;;;;;;;4.90;3.55;;;9.60;99.90;;;;;;5073191;28;20202;-79
2021/03/18 12:14:49;;;;;;;7.07;4.00;;;9.60;99.90;;;;;;5073157;28;20207;-78
2021/03/18 12:17:15;;;;;;;4.35;3.95;;;9.60;99.90;;;;;;5076575;28;22466;-79
2021/03/18 12:19:42;;;;;;;4.88;3.70;;;9.60;99.90;;;;;;5078541;28;20248;-79
2021/03/18 12:22:08;;;;;;;4.10;3.72;;;9.60;99.90;;;;;;5069815;28;20278;-79
2021/03/18 12:24:36;;;;;;;5.82;4.55;;;9.70;99.90;;;;;;5064244;28;20310;-78
2021/03/18 12:27:03;;;;;;;6.22;4.65;;;9.70;99.90;;;;;;5071605;28;20184;-78
2021/03/18 12:29:29;;;;;;;4.85;3.90;;;9.70;99.90;;;;;;5075597;28;20613;-79
2021/03/18 12:31:56;;;;;;;5.07;3.55;;;9.70;99.90;;;;;;5077506;28;20214;-79
2021/03/18 12:34:23;;;;;;;5.68;3.83;;;9.80;99.90;;;;;;5069463;28;20283;-78
2021/03/18 12:36:50;;;;;;;5.30;4.78;;;9.80;99.90;;;;;;5073716;28;20214;-79
2021/03/18 12:39:16;;;;;;;6.75;3.75;;;9.80;99.90;;;;;;5077305;28;20574;-78
2021/03/18 12:41:43;;;;;;;5.07;4.10;;;9.90;99.90;;;;;;5071943;28;20189;-77
2021/03/18 12:44:10;;;;;;;6.22;4.10;;;10.00;99.90;;;;;;5077056;28;20617;-79
2021/03/18 12:46:36;;;;;;;11.30;4.00;;;10.00;99.90;;;;;;5077286;28;20762;-77
2021/03/18 12:49:03;;;;;;;7.32;4.10;;;10.00;99.90;;;;;;5077139;28;20194;-79
2021/03/18 12:51:31;;;;;;;5.32;3.20;;;9.90;99.90;;;;;;5077613;28;20207;-77
2021/03/18 12:53:57;;;;;;;8.35;3.53;;;10.00;99.90;;;;;;5076668;28;20195;-78
2021/03/18 12:56:25;;;;;;;4.38;3.83;;;10.00;99.90;;;;;;5075817;28;20240;-79
2021/03/18 12:58:53;;;;;;;5.53;3.30;;;10.10;99.90;;;;;;5071766;28;20313;-77
2021/03/18 13:01:19;;;;;;;6.50;3.58;;;10.10;99.90;;;;;;5072017;28;20252;-79